createdAt,value
2022-12-03T00:01:14.197Z,1.62
2022-12-03T00:03:46.804Z,1.71
2022-12-03T00:06:19.616Z,1.50
2022-12-03T00:08:52.127Z,1.76
2022-12-03T00:11:24.616Z,1.60
2022-12-03T00:13:57.144Z,1.59
2022-12-03T00:16:29.826Z,1.61
2022-12-03T00:19:02.632Z,1.64
2022-12-03T00:21:35.373Z,1.80
2022-12-03T00:24:08.560Z,1.70
2022-12-03T00:26:41.092Z,1.60
2022-12-03T00:29:14.233Z,1.73
2022-12-03T00:31:46.865Z,1.74
2022-12-03T00:34:19.504Z,1.61
2022-12-03T00:36:52.017Z,1.61
2022-12-03T00:39:24.552Z,1.67
2022-12-03T00:41:57.058Z,1.75
2022-12-03T00:44:29.606Z,1.66
2022-12-03T00:47:02.135Z,1.60
2022-12-03T00:49:34.692Z,1.62
2022-12-03T00:52:07.293Z,1.74
2022-12-03T00:54:39.792Z,1.84
2022-12-03T00:57:12.359Z,1.80
2022-12-03T00:59:44.896Z,1.72
2022-12-03T01:02:17.444Z,1.76
2022-12-03T01:04:50.221Z,1.61
2022-12-03T01:07:22.981Z,1.56
2022-12-03T01:09:55.503Z,1.77
2022-12-03T01:12:27.993Z,1.75
2022-12-03T01:15:00.487Z,1.89
2022-12-03T01:17:33.118Z,1.77
2022-12-03T01:20:07.891Z,1.82
2022-12-03T01:22:40.384Z,1.73
2022-12-03T01:25:12.894Z,1.91
2022-12-03T01:27:45.470Z,1.72
2022-12-03T01:30:18.088Z,1.85
2022-12-03T01:32:50.668Z,1.76
2022-12-03T01:35:23.211Z,1.97
2022-12-03T01:37:55.740Z,1.80
2022-12-03T01:40:28.217Z,1.86
2022-12-03T01:43:01.068Z,1.52
2022-12-03T01:45:33.647Z,1.74
2022-12-03T01:48:06.560Z,1.69
2022-12-03T01:50:39.101Z,1.79
2022-12-03T01:53:16.466Z,1.84
2022-12-03T01:55:49.212Z,1.57
2022-12-03T01:58:29.687Z,1.66
2022-12-03T02:01:17.919Z,1.90
2022-12-03T02:03:50.605Z,1.62
2022-12-03T02:06:29.797Z,1.69
2022-12-03T02:09:02.713Z,1.59
2022-12-03T02:11:49.487Z,1.79
2022-12-03T02:14:22.378Z,1.96
2022-12-03T02:16:54.941Z,1.85
2022-12-03T02:19:31.963Z,1.73
2022-12-03T02:22:28.743Z,1.86
2022-12-03T02:25:13.262Z,1.87
2022-12-03T02:27:47.802Z,1.76
2022-12-03T02:30:23.833Z,1.66
2022-12-03T02:32:58.006Z,1.77
2022-12-03T02:35:35.221Z,1.76
2022-12-03T02:38:23.034Z,1.80
2022-12-03T02:41:02.140Z,1.80
2022-12-03T02:43:34.784Z,1.76
2022-12-03T02:46:08.631Z,1.71
2022-12-03T02:48:41.804Z,1.79
2022-12-03T02:51:14.387Z,1.83
2022-12-03T02:53:51.935Z,1.73
2022-12-03T02:56:30.527Z,1.76
2022-12-03T02:59:05.718Z,1.82
2022-12-03T03:01:38.480Z,1.74
2022-12-03T03:04:11.422Z,1.83
2022-12-03T03:06:44.445Z,1.91
2022-12-03T03:09:17.333Z,1.75
2022-12-03T03:11:49.844Z,1.80
2022-12-03T03:14:22.485Z,1.92
2022-12-03T03:16:57.915Z,1.68
2022-12-03T03:19:30.784Z,1.88
2022-12-03T03:22:03.768Z,1.87
2022-12-03T03:24:36.768Z,1.83
2022-12-03T03:27:09.705Z,1.89
2022-12-03T03:29:42.287Z,1.80
2022-12-03T03:32:14.944Z,1.91
2022-12-03T03:34:47.725Z,1.94
2022-12-03T03:37:20.547Z,1.93
2022-12-03T03:39:53.490Z,1.97
2022-12-03T03:42:26.200Z,1.84
2022-12-03T03:44:59.303Z,1.88
2022-12-03T03:47:32.458Z,1.69
2022-12-03T03:50:08.178Z,1.67
2022-12-03T03:52:43.193Z,1.89
2022-12-03T03:55:15.867Z,1.93
2022-12-03T03:57:48.867Z,1.87
2022-12-03T04:00:21.747Z,1.90
2022-12-03T04:02:54.538Z,1.88
2022-12-03T04:05:28.232Z,1.83
2022-12-03T04:08:01.016Z,1.88
2022-12-03T04:10:52.352Z,1.89
2022-12-03T04:13:24.899Z,1.98
2022-12-03T04:15:57.507Z,1.95
2022-12-03T04:18:45.336Z,1.66
2022-12-03T04:21:40.698Z,1.76
2022-12-03T04:24:13.252Z,1.64
2022-12-03T04:27:04.681Z,1.81
2022-12-03T04:29:37.317Z,1.60
2022-12-03T04:32:28.508Z,1.59
2022-12-03T04:35:20.024Z,1.84
2022-12-03T04:37:52.547Z,1.92
2022-12-03T04:40:43.455Z,2.05
2022-12-03T04:43:15.908Z,1.92
2022-12-03T04:45:48.582Z,1.93
2022-12-03T04:48:21.148Z,1.98
2022-12-03T04:50:53.787Z,1.92
2022-12-03T04:53:26.278Z,1.77
2022-12-03T04:55:58.830Z,1.82
2022-12-03T04:58:31.299Z,1.86
2022-12-03T05:01:03.811Z,1.73
2022-12-03T05:03:36.385Z,1.73
2022-12-03T05:06:09.151Z,1.76
2022-12-03T05:08:41.600Z,1.83
2022-12-03T05:11:14.629Z,1.88
2022-12-03T05:13:47.155Z,1.87
2022-12-03T05:16:19.874Z,1.85
2022-12-03T05:18:52.524Z,1.71
2022-12-03T05:21:25.101Z,1.76
2022-12-03T05:23:57.641Z,1.90
2022-12-03T05:26:30.341Z,1.66
2022-12-03T05:29:03.042Z,1.85
2022-12-03T05:31:35.552Z,1.80
2022-12-03T05:34:08.054Z,1.92
2022-12-03T05:36:40.577Z,1.81
2022-12-03T05:39:13.165Z,1.49
2022-12-03T05:42:04.417Z,1.66
2022-12-03T05:44:36.925Z,1.71
2022-12-03T05:47:09.522Z,1.79
2022-12-03T05:49:42.058Z,1.58
2022-12-03T05:52:14.545Z,1.83
2022-12-03T05:54:47.096Z,1.78
2022-12-03T05:57:19.616Z,1.66
2022-12-03T05:59:52.139Z,1.64
2022-12-03T06:02:24.764Z,1.56
2022-12-03T06:04:57.363Z,1.75
2022-12-03T06:07:29.953Z,1.77
2022-12-03T06:10:03.942Z,1.68
2022-12-03T06:12:36.608Z,1.79
2022-12-03T06:15:11.003Z,1.59
2022-12-03T06:17:43.612Z,1.49
2022-12-03T06:20:19.600Z,1.64
2022-12-03T06:22:52.104Z,1.64
2022-12-03T06:25:24.671Z,1.71
2022-12-03T06:27:57.252Z,1.85
2022-12-03T06:30:29.934Z,1.80
2022-12-03T06:33:02.618Z,1.84
2022-12-03T06:35:36.504Z,1.84
2022-12-03T06:38:09.037Z,1.72
2022-12-03T06:40:41.531Z,1.74
2022-12-03T06:43:14.275Z,1.72
2022-12-03T06:45:48.057Z,1.82
2022-12-03T06:48:20.869Z,1.58
2022-12-03T06:50:53.316Z,1.73
2022-12-03T06:53:25.861Z,1.65
2022-12-03T06:55:58.383Z,1.39
2022-12-03T06:58:33.553Z,1.62
2022-12-03T07:01:06.078Z,1.51
2022-12-03T07:03:38.609Z,1.69
2022-12-03T07:06:11.112Z,1.70
2022-12-03T07:08:43.796Z,1.68
2022-12-03T07:11:31.321Z,1.66
2022-12-03T07:14:06.239Z,1.77
2022-12-03T07:16:39.437Z,1.84
2022-12-03T07:19:12.199Z,1.85
2022-12-03T07:21:44.708Z,1.77
2022-12-03T07:24:17.449Z,1.76
2022-12-03T07:26:49.960Z,1.78
2022-12-03T07:29:22.558Z,1.67
2022-12-03T07:31:55.175Z,1.55
2022-12-03T07:34:28.300Z,1.77
2022-12-03T07:37:00.833Z,1.79
2022-12-03T07:39:33.402Z,1.67
2022-12-03T07:42:05.956Z,1.68
2022-12-03T07:44:38.432Z,1.81
2022-12-03T07:47:10.966Z,1.76
2022-12-03T07:49:43.936Z,1.69
2022-12-03T07:52:16.563Z,1.59
2022-12-03T07:54:49.200Z,1.77
2022-12-03T07:57:21.768Z,1.86
2022-12-03T07:59:54.308Z,1.74
2022-12-03T08:02:26.836Z,1.84
2022-12-03T08:04:59.374Z,1.74
2022-12-03T08:07:31.862Z,1.64
2022-12-03T08:10:06.696Z,1.80
2022-12-03T08:12:42.602Z,1.76
2022-12-03T08:15:24.090Z,1.83
2022-12-03T08:18:00.343Z,1.84
2022-12-03T08:20:38.709Z,1.70
2022-12-03T08:23:22.103Z,1.75
2022-12-03T08:25:54.645Z,1.59
2022-12-03T08:28:27.141Z,1.77
2022-12-03T08:31:19.492Z,1.75
2022-12-03T08:33:59.174Z,1.66
2022-12-03T08:36:33.604Z,1.67
2022-12-03T08:39:43.010Z,1.67
2022-12-03T08:42:42.614Z,1.96
2022-12-03T08:45:31.889Z,2.01
2022-12-03T08:48:28.837Z,1.91
2022-12-03T08:51:15.309Z,1.92
2022-12-03T08:53:53.319Z,1.94
2022-12-03T08:56:35.788Z,2.01
2022-12-03T08:59:29.238Z,1.92
2022-12-03T09:02:02.105Z,1.94
2022-12-03T09:04:47.155Z,2.10
2022-12-03T09:07:19.659Z,2.18
2022-12-03T09:09:52.164Z,2.14
2022-12-03T09:12:24.630Z,2.25
2022-12-03T09:14:57.092Z,2.12
2022-12-03T09:17:29.675Z,2.05
2022-12-03T09:20:02.468Z,2.12
2022-12-03T09:22:35.023Z,2.29
2022-12-03T09:25:08.039Z,1.90
2022-12-03T09:27:40.530Z,2.02
2022-12-03T09:30:13.352Z,2.02
2022-12-03T09:32:45.850Z,2.05
2022-12-03T09:35:18.515Z,2.13
2022-12-03T09:37:51.057Z,1.94
2022-12-03T09:40:24.207Z,1.86
2022-12-03T09:42:59.855Z,2.07
2022-12-03T09:45:32.398Z,2.05
2022-12-03T09:48:05.354Z,1.93
2022-12-03T09:50:41.844Z,2.12
2022-12-03T09:53:20.930Z,1.89
2022-12-03T09:55:54.057Z,1.92
2022-12-03T09:58:34.339Z,1.85
2022-12-03T10:01:15.136Z,1.90
2022-12-03T10:03:51.156Z,1.95
2022-12-03T10:06:24.272Z,1.87
2022-12-03T10:08:56.964Z,1.94
2022-12-03T10:11:31.315Z,1.96
2022-12-03T10:14:05.104Z,1.66
2022-12-03T10:16:40.160Z,1.88
2022-12-03T10:19:25.280Z,1.93
2022-12-03T10:21:58.239Z,1.86
2022-12-03T10:24:36.584Z,1.74
2022-12-03T10:27:30.250Z,1.62
2022-12-03T10:30:14.535Z,1.56
2022-12-03T10:32:50.607Z,1.70
2022-12-03T10:35:42.160Z,1.85
2022-12-03T10:38:17.641Z,1.64
2022-12-03T10:40:50.934Z,1.57
2022-12-03T10:43:25.584Z,1.66
2022-12-03T10:46:22.805Z,1.58
2022-12-03T10:49:11.824Z,1.73
2022-12-03T10:51:48.274Z,1.79
2022-12-03T10:54:27.272Z,1.94
2022-12-03T10:57:01.521Z,2.03
2022-12-03T10:59:35.136Z,2.17
2022-12-03T11:02:21.838Z,2.34
2022-12-03T11:04:55.323Z,2.14
2022-12-03T11:07:28.793Z,2.30
2022-12-03T11:10:02.612Z,2.13
2022-12-03T11:12:35.629Z,2.38
2022-12-03T11:15:16.533Z,2.49
2022-12-03T11:17:52.975Z,2.54
2022-12-03T11:20:25.362Z,2.16
2022-12-03T11:22:59.870Z,2.14
2022-12-03T11:25:47.860Z,2.23
2022-12-03T11:28:20.256Z,2.04
2022-12-03T11:30:56.563Z,2.00
2022-12-03T11:33:40.579Z,1.95
2022-12-03T11:36:15.370Z,2.05
2022-12-03T11:38:54.999Z,1.84
2022-12-03T11:41:32.179Z,1.92
2022-12-03T11:44:31.148Z,2.09
2022-12-03T11:47:16.362Z,1.82
2022-12-03T11:49:49.100Z,2.02
2022-12-03T11:52:29.095Z,2.01
2022-12-03T11:55:16.045Z,2.09
2022-12-03T11:57:48.741Z,2.10
2022-12-03T12:00:24.368Z,2.08
2022-12-03T12:02:58.688Z,2.03
2022-12-03T12:05:34.384Z,2.13
2022-12-03T12:08:19.608Z,2.30
2022-12-03T12:10:52.337Z,2.10
2022-12-03T12:13:30.830Z,2.06
2022-12-03T12:16:06.207Z,2.18
2022-12-03T12:18:40.380Z,2.23
2022-12-03T12:21:43.268Z,2.13
2022-12-03T12:24:42.913Z,2.14
2022-12-03T12:27:49.317Z,2.00
2022-12-03T12:30:23.409Z,1.93
2022-12-03T12:33:13.349Z,2.12
2022-12-03T12:35:45.869Z,2.29
2022-12-03T12:38:24.180Z,2.05
2022-12-03T12:40:57.260Z,2.06
2022-12-03T12:43:32.503Z,2.27
2022-12-03T12:49:12.287Z,2.29
2022-12-03T12:51:47.718Z,2.07
2022-12-03T12:54:20.269Z,2.32
2022-12-03T12:56:53.136Z,2.17
2022-12-03T12:59:25.964Z,2.25
2022-12-03T13:02:01.124Z,2.24
2022-12-03T13:04:39.995Z,2.32
2022-12-03T13:07:12.476Z,2.15
2022-12-03T13:09:45.014Z,2.49
2022-12-03T13:12:23.422Z,2.05
2022-12-03T13:14:59.514Z,2.10
2022-12-03T13:17:31.980Z,2.15
2022-12-03T13:20:18.966Z,2.01
2022-12-03T13:22:51.479Z,1.76
2022-12-03T13:28:31.525Z,1.72
2022-12-03T13:31:43.530Z,1.80
2022-12-03T13:34:26.055Z,1.78
2022-12-03T13:37:01.096Z,1.67
2022-12-03T13:39:39.112Z,1.71
2022-12-03T13:42:46.448Z,1.75
2022-12-03T13:45:38.509Z,1.90
2022-12-03T13:48:23.471Z,1.78
2022-12-03T13:50:56.236Z,1.96
2022-12-03T13:53:40.100Z,1.87
2022-12-03T13:56:30.381Z,1.87
2022-12-03T13:59:04.460Z,2.02
2022-12-03T14:01:37.104Z,1.72
2022-12-03T14:04:10.030Z,1.88
2022-12-03T14:06:42.612Z,2.03
2022-12-03T14:09:15.148Z,2.08
2022-12-03T14:12:06.453Z,2.15
2022-12-03T14:14:39.130Z,2.01
2022-12-03T14:17:11.857Z,2.06
2022-12-03T14:19:44.725Z,1.97
2022-12-03T14:22:19.253Z,1.90
2022-12-03T14:24:53.049Z,1.99
2022-12-03T14:27:25.790Z,1.88
2022-12-03T14:29:58.650Z,1.83
2022-12-03T14:32:31.267Z,1.97
2022-12-03T14:35:09.657Z,1.80
2022-12-03T14:37:42.635Z,1.66
2022-12-03T14:40:19.739Z,1.59
2022-12-03T14:42:54.068Z,1.78
2022-12-03T14:45:28.481Z,1.67
2022-12-03T14:48:01.122Z,1.71
2022-12-03T14:50:33.597Z,1.70
2022-12-03T14:53:06.068Z,1.63
2022-12-03T14:55:38.614Z,1.67
2022-12-03T14:58:11.181Z,1.79
2022-12-03T15:00:43.712Z,1.41
2022-12-03T15:03:16.285Z,1.40
2022-12-03T15:05:49.072Z,1.57
2022-12-03T15:08:21.741Z,1.64
2022-12-03T15:10:54.683Z,1.64
2022-12-03T15:13:27.235Z,1.47
2022-12-03T15:15:59.846Z,1.58
2022-12-03T15:18:34.498Z,1.34
2022-12-03T15:21:07.018Z,1.38
2022-12-03T15:23:39.617Z,1.48
2022-12-03T15:26:12.146Z,1.52
2022-12-03T15:28:48.280Z,1.75
2022-12-03T15:31:21.203Z,1.74
2022-12-03T15:33:53.816Z,1.37
2022-12-03T15:36:26.527Z,1.45
2022-12-03T15:38:59.233Z,1.48
2022-12-03T15:41:31.843Z,1.44
2022-12-03T15:44:04.604Z,1.57
2022-12-03T15:46:37.281Z,1.36
2022-12-03T15:49:09.894Z,1.49
2022-12-03T15:51:42.479Z,1.45
2022-12-03T15:54:15.022Z,1.41
2022-12-03T15:56:48.838Z,1.31
2022-12-03T15:59:24.362Z,1.54
2022-12-03T16:01:56.941Z,1.55
2022-12-03T16:04:29.577Z,1.51
2022-12-03T16:07:02.246Z,1.42
2022-12-03T16:09:34.797Z,1.44
2022-12-03T16:12:07.332Z,1.40
2022-12-03T16:14:39.839Z,1.38
2022-12-03T16:17:12.391Z,1.62
2022-12-03T16:19:45.598Z,1.54
2022-12-03T16:22:18.143Z,1.53
2022-12-03T16:24:50.650Z,1.57
2022-12-03T16:27:25.820Z,1.53
2022-12-03T16:29:58.990Z,1.49
2022-12-03T16:32:31.609Z,1.55
2022-12-03T16:35:04.781Z,1.52
2022-12-03T16:37:37.285Z,1.59
2022-12-03T16:40:10.656Z,1.50
2022-12-03T16:42:43.175Z,1.52
2022-12-03T16:45:24.545Z,1.56
2022-12-03T16:47:57.106Z,1.38
2022-12-03T16:50:31.708Z,1.50
2022-12-03T16:53:04.381Z,1.40
2022-12-03T16:55:36.908Z,1.45
2022-12-03T16:58:09.899Z,1.47
2022-12-03T17:00:42.468Z,1.56
2022-12-03T17:03:16.139Z,1.38
2022-12-03T17:05:49.692Z,1.40
2022-12-03T17:08:27.992Z,1.38
2022-12-03T17:11:00.565Z,1.38
2022-12-03T17:13:33.080Z,1.24
2022-12-03T17:16:06.771Z,1.27
2022-12-03T17:18:39.388Z,1.41
2022-12-03T17:21:12.002Z,1.51
2022-12-03T17:23:46.236Z,1.55
2022-12-03T17:26:21.481Z,1.62
2022-12-03T17:28:53.993Z,1.59
2022-12-03T17:31:27.151Z,1.61
2022-12-03T17:33:59.720Z,1.48
2022-12-03T17:36:32.225Z,1.50
2022-12-03T17:39:04.741Z,1.45
2022-12-03T17:41:37.227Z,1.37
2022-12-03T17:44:24.801Z,1.41
2022-12-03T17:46:57.361Z,1.09
2022-12-03T17:49:31.674Z,1.28
2022-12-03T17:52:04.467Z,1.26
2022-12-03T17:55:01.745Z,1.11
2022-12-03T17:57:29.499Z,1.28
2022-12-03T18:00:02.195Z,1.26
2022-12-03T18:02:34.734Z,1.24
2022-12-03T18:05:07.636Z,1.28
2022-12-03T18:07:43.253Z,1.40
2022-12-03T18:10:15.914Z,1.46
2022-12-03T18:12:49.057Z,1.33
2022-12-03T18:15:21.536Z,1.31
2022-12-03T18:17:54.014Z,1.26
2022-12-03T18:20:26.815Z,1.34
2022-12-03T18:22:59.619Z,1.21
2022-12-03T18:25:32.211Z,1.26
2022-12-03T18:28:05.842Z,1.21
2022-12-03T18:30:38.470Z,1.28
2022-12-03T18:33:11.132Z,1.32
2022-12-03T18:35:44.537Z,1.15
2022-12-03T18:38:18.327Z,1.10
2022-12-03T18:40:55.735Z,1.19
2022-12-03T18:43:28.374Z,1.26
2022-12-03T18:46:00.959Z,0.91
2022-12-03T18:48:33.433Z,0.99
2022-12-03T18:51:18.812Z,1.04
2022-12-03T18:53:51.672Z,1.14
2022-12-03T18:56:24.199Z,1.03
2022-12-03T18:58:56.681Z,0.86
2022-12-03T19:01:29.274Z,1.00
2022-12-03T19:04:01.899Z,1.10
2022-12-03T19:06:34.386Z,1.10
2022-12-03T19:09:07.168Z,1.15
2022-12-03T19:11:39.780Z,1.12
2022-12-03T19:14:12.372Z,1.03
2022-12-03T19:16:45.408Z,0.91
2022-12-03T19:19:20.370Z,0.78
2022-12-03T19:21:54.264Z,0.93
2022-12-03T19:24:27.290Z,1.10
2022-12-03T19:26:59.908Z,1.14
2022-12-03T19:29:32.372Z,1.04
2022-12-03T19:32:05.546Z,0.86
2022-12-03T19:34:38.167Z,0.98
2022-12-03T19:37:10.697Z,0.88
2022-12-03T19:39:43.481Z,1.09
2022-12-03T19:42:17.257Z,0.97
2022-12-03T19:44:49.774Z,0.83
2022-12-03T19:47:24.692Z,0.88
2022-12-03T19:49:57.623Z,0.96
2022-12-03T19:52:30.281Z,1.06
2022-12-03T19:55:03.213Z,0.96
2022-12-03T19:57:35.678Z,0.91
2022-12-03T20:00:09.224Z,0.85
2022-12-03T20:02:41.785Z,0.83
2022-12-03T20:05:14.598Z,0.95
2022-12-03T20:07:47.426Z,0.91
2022-12-03T20:10:20.144Z,0.98
2022-12-03T20:12:54.509Z,0.76
2022-12-03T20:15:28.007Z,0.78
2022-12-03T20:18:00.571Z,1.03
2022-12-03T20:20:33.050Z,0.95
2022-12-03T20:23:05.583Z,1.00
2022-12-03T20:25:38.113Z,0.97
2022-12-03T20:28:10.610Z,1.00
2022-12-03T20:30:45.243Z,0.80
2022-12-03T20:33:17.838Z,0.80
2022-12-03T20:35:55.095Z,0.85
2022-12-03T20:38:27.718Z,0.91
2022-12-03T20:41:10.450Z,0.93
2022-12-03T20:43:43.089Z,0.85
2022-12-03T20:46:20.168Z,0.80
2022-12-03T20:48:56.572Z,0.62
2022-12-03T20:51:31.625Z,0.81
2022-12-03T20:54:04.408Z,0.66
2022-12-03T20:56:42.021Z,0.60
2022-12-03T20:59:17.187Z,0.61
2022-12-03T21:01:50.132Z,0.54
2022-12-03T21:04:22.796Z,0.56
2022-12-03T21:06:55.289Z,0.68
2022-12-03T21:09:27.941Z,0.54
2022-12-03T21:12:00.414Z,0.72
2022-12-03T21:14:32.998Z,0.68
2022-12-03T21:17:08.707Z,0.80
2022-12-03T21:19:42.061Z,0.79
2022-12-03T21:22:15.013Z,0.71
2022-12-03T21:24:47.702Z,0.71
2022-12-03T21:27:21.978Z,0.63
2022-12-03T21:29:55.505Z,0.62
2022-12-03T21:32:28.303Z,0.73
2022-12-03T21:35:00.945Z,0.50
2022-12-03T21:37:33.410Z,0.48
2022-12-03T21:40:07.149Z,0.61
2022-12-03T21:42:39.641Z,0.52
2022-12-03T21:45:12.312Z,0.48
2022-12-03T21:47:48.473Z,0.38
2022-12-03T21:50:21.191Z,0.61
2022-12-03T21:52:53.864Z,0.52
2022-12-03T21:55:26.628Z,0.40
2022-12-03T21:57:59.214Z,0.34
2022-12-03T22:00:31.793Z,0.36
2022-12-03T22:03:04.414Z,0.54
2022-12-03T22:05:40.313Z,0.52
2022-12-03T22:08:13.745Z,0.51
2022-12-03T22:10:46.324Z,0.62
2022-12-03T22:13:18.882Z,0.77
2022-12-03T22:15:51.483Z,0.71
2022-12-03T22:18:24.016Z,0.61
2022-12-03T22:20:56.543Z,0.55
2022-12-03T22:23:30.904Z,0.67
2022-12-03T22:26:11.177Z,0.57
2022-12-03T22:28:48.890Z,0.71
2022-12-03T22:31:21.676Z,0.70
2022-12-03T22:33:54.173Z,0.64
2022-12-03T22:36:26.699Z,0.81
2022-12-03T22:38:59.231Z,0.69
2022-12-03T22:41:31.733Z,0.65
2022-12-03T22:44:04.351Z,0.62
2022-12-03T22:46:36.947Z,0.66
2022-12-03T22:49:13.011Z,0.69
2022-12-03T22:51:47.147Z,0.65
2022-12-03T22:54:23.950Z,0.69
2022-12-03T22:56:56.903Z,0.62
2022-12-03T22:59:29.460Z,0.67
2022-12-03T23:02:02.019Z,0.72
2022-12-03T23:04:34.541Z,0.72
2022-12-03T23:07:08.261Z,0.93
2022-12-03T23:09:40.828Z,0.96
2022-12-03T23:12:14.564Z,0.92
2022-12-03T23:14:47.055Z,0.94
2022-12-03T23:17:19.555Z,0.84
2022-12-03T23:19:52.187Z,0.85
2022-12-03T23:22:24.796Z,0.72
2022-12-03T23:24:57.427Z,0.58
2022-12-03T23:27:30.324Z,0.76
2022-12-03T23:30:03.990Z,0.85
2022-12-03T23:32:36.779Z,0.70
2022-12-03T23:35:10.803Z,0.72
2022-12-03T23:37:44.410Z,0.69
2022-12-03T23:40:16.984Z,0.83
2022-12-03T23:42:49.931Z,0.61
2022-12-03T23:45:22.676Z,0.61
2022-12-03T23:47:58.384Z,0.71
2022-12-03T23:50:31.180Z,0.80
2022-12-03T23:53:03.801Z,0.60
2022-12-03T23:55:40.407Z,0.50
2022-12-03T23:58:12.846Z,0.59
